createdAt,value
2018-05-23T00:01:38.824Z,17.30
2018-05-23T00:04:07.388Z,17.31
2018-05-23T00:06:35.951Z,17.26
2018-05-23T00:09:03.621Z,17.27
2018-05-23T00:11:32.180Z,17.31
2018-05-23T00:14:00.750Z,17.33
2018-05-23T00:16:29.310Z,17.34
2018-05-23T00:18:57.878Z,17.35
2018-05-23T00:21:26.460Z,17.22
2018-05-23T00:23:55.029Z,17.17
2018-05-23T00:26:23.607Z,17.14
2018-05-23T00:28:52.172Z,17.14
2018-05-23T00:31:20.749Z,17.17
2018-05-23T00:33:49.308Z,17.19
2018-05-23T00:36:17.879Z,17.19
2018-05-23T00:38:46.452Z,17.23
2018-05-23T00:41:15.026Z,17.22
2018-05-23T00:43:43.592Z,17.06
2018-05-23T00:46:12.151Z,17.05
2018-05-23T00:48:40.720Z,17.07
2018-05-23T00:51:09.299Z,17.08
2018-05-23T00:53:37.875Z,16.94
2018-05-23T00:56:06.439Z,16.84
2018-05-23T00:58:35.025Z,16.82
2018-05-23T01:01:03.592Z,16.79
2018-05-23T01:03:32.163Z,16.78
2018-05-23T01:06:00.725Z,16.78
2018-05-23T01:08:29.287Z,16.72
2018-05-23T01:10:57.845Z,16.75
2018-05-23T01:13:26.478Z,16.78
2018-05-23T01:15:55.052Z,16.79
2018-05-23T01:18:23.658Z,16.84
2018-05-23T01:20:52.419Z,16.86
2018-05-23T01:23:20.988Z,16.87
2018-05-23T01:25:49.569Z,16.78
2018-05-23T01:28:18.136Z,16.77
2018-05-23T01:30:46.743Z,16.73
2018-05-23T01:33:15.389Z,16.76
2018-05-23T01:35:44.087Z,16.78
2018-05-23T01:38:12.651Z,16.81
2018-05-23T01:40:41.214Z,16.76
2018-05-23T01:43:09.782Z,16.71
2018-05-23T01:45:38.343Z,16.65
2018-05-23T01:48:06.908Z,16.64
2018-05-23T01:50:35.486Z,16.57
2018-05-23T01:53:04.082Z,16.39
2018-05-23T01:55:32.640Z,16.33
2018-05-23T01:58:01.195Z,16.33
2018-05-23T02:00:29.808Z,16.28
2018-05-23T02:02:58.423Z,16.24
2018-05-23T02:05:27.183Z,16.20
2018-05-23T02:07:55.767Z,16.20
2018-05-23T02:10:24.355Z,16.18
2018-05-23T02:12:52.980Z,16.20
2018-05-23T02:15:21.547Z,16.23
2018-05-23T02:17:50.121Z,16.26
2018-05-23T02:20:18.695Z,16.29
2018-05-23T02:22:47.271Z,16.25
2018-05-23T02:25:15.851Z,16.26
2018-05-23T02:27:44.515Z,16.27
2018-05-23T02:30:13.131Z,16.22
2018-05-23T02:32:42.016Z,16.17
2018-05-23T02:35:10.591Z,16.08
2018-05-23T02:37:39.170Z,16.09
2018-05-23T02:40:07.940Z,16.06
2018-05-23T02:42:36.515Z,16.08
2018-05-23T02:45:05.189Z,16.03
2018-05-23T02:47:33.745Z,15.98
2018-05-23T02:50:02.330Z,15.99
2018-05-23T02:52:30.927Z,16.00
2018-05-23T02:54:59.488Z,16.05
2018-05-23T02:57:28.053Z,16.08
2018-05-23T02:59:56.631Z,16.01
2018-05-23T03:02:25.209Z,16.05
2018-05-23T03:04:53.849Z,15.99
2018-05-23T03:07:22.416Z,15.99
2018-05-23T03:09:51.029Z,16.02
2018-05-23T03:12:19.593Z,16.03
2018-05-23T03:14:48.195Z,16.10
2018-05-23T03:17:17.051Z,16.14
2018-05-23T03:19:45.664Z,16.22
2018-05-23T03:22:14.272Z,16.24
2018-05-23T03:24:42.856Z,16.27
2018-05-23T03:27:11.438Z,16.36
2018-05-23T03:29:40.007Z,16.38
2018-05-23T03:32:08.584Z,16.41
2018-05-23T03:34:37.196Z,16.48
2018-05-23T03:37:05.754Z,16.57
2018-05-23T03:39:34.371Z,16.62
2018-05-23T03:42:02.979Z,16.67
2018-05-23T03:44:31.225Z,16.67
2018-05-23T03:46:59.793Z,16.83
2018-05-23T03:49:28.391Z,16.89
2018-05-23T03:51:57.018Z,16.95
2018-05-23T03:54:25.583Z,16.92
2018-05-23T03:56:54.209Z,16.98
2018-05-23T03:59:33.892Z,16.94
2018-05-23T04:02:13.544Z,16.79
2018-05-23T04:07:48.277Z,16.82
2018-05-23T04:10:16.847Z,16.84
2018-05-23T04:12:45.430Z,16.95
2018-05-23T04:15:14.007Z,17.06
2018-05-23T04:17:42.580Z,17.10
2018-05-23T04:20:11.163Z,17.12
2018-05-23T04:22:39.764Z,17.22
2018-05-23T04:25:08.349Z,17.32
2018-05-23T04:27:36.916Z,17.44
2018-05-23T04:30:06.916Z,17.56
2018-05-23T04:32:35.484Z,17.63
2018-05-23T04:35:04.058Z,17.58
2018-05-23T04:37:32.631Z,17.60
2018-05-23T04:40:01.206Z,17.76
2018-05-23T04:42:29.813Z,17.86
2018-05-23T04:44:58.417Z,18.18
2018-05-23T04:47:26.996Z,18.50
2018-05-23T04:49:55.580Z,19.27
2018-05-23T04:52:24.158Z,20.23
2018-05-23T04:54:52.720Z,21.18
2018-05-23T04:57:21.278Z,21.91
2018-05-23T04:59:49.875Z,22.37
2018-05-23T05:02:18.628Z,22.52
2018-05-23T05:04:47.207Z,22.61
2018-05-23T05:07:16.000Z,23.33
2018-05-23T05:09:44.576Z,23.85
2018-05-23T05:12:13.137Z,24.21
2018-05-23T05:14:41.717Z,24.63
2018-05-23T05:17:10.289Z,24.86
2018-05-23T05:19:38.862Z,25.15
2018-05-23T05:22:07.423Z,25.28
2018-05-23T05:24:35.996Z,25.21
2018-05-23T05:27:04.559Z,25.09
2018-05-23T05:29:33.127Z,25.12
2018-05-23T05:32:01.691Z,25.22
2018-05-23T05:34:30.267Z,25.09
2018-05-23T05:36:58.861Z,25.09
2018-05-23T05:39:27.432Z,24.89
2018-05-23T05:41:56.002Z,24.60
2018-05-23T05:44:24.585Z,24.33
2018-05-23T05:46:53.245Z,24.05
2018-05-23T05:49:21.930Z,23.65
2018-05-23T05:51:50.515Z,23.59
2018-05-23T05:54:19.095Z,23.37
2018-05-23T05:56:47.680Z,23.18
2018-05-23T05:59:16.314Z,22.74
2018-05-23T06:01:45.041Z,22.60
2018-05-23T06:04:13.625Z,22.31
2018-05-23T06:06:42.199Z,22.40
2018-05-23T06:09:10.802Z,22.42
2018-05-23T06:11:39.412Z,22.38
2018-05-23T06:14:07.991Z,22.44
2018-05-23T06:16:36.577Z,22.45
2018-05-23T06:19:05.159Z,22.19
2018-05-23T06:21:33.723Z,22.03
2018-05-23T06:24:02.336Z,22.06
2018-05-23T06:26:30.921Z,22.12
2018-05-23T06:28:59.521Z,22.14
2018-05-23T06:31:28.099Z,22.03
2018-05-23T06:33:56.672Z,22.03
2018-05-23T06:36:25.263Z,21.84
2018-05-23T06:38:53.836Z,21.90
2018-05-23T06:41:22.427Z,21.89
2018-05-23T06:43:50.749Z,21.80
2018-05-23T06:46:19.904Z,21.85
2018-05-23T06:48:50.862Z,21.69
2018-05-23T06:51:19.475Z,21.51
2018-05-23T06:53:48.050Z,21.54
2018-05-23T06:56:16.620Z,21.71
2018-05-23T06:58:45.201Z,21.77
2018-05-23T07:01:13.782Z,21.35
2018-05-23T07:03:42.378Z,21.37
2018-05-23T07:06:10.948Z,21.46
2018-05-23T07:08:39.507Z,21.54
2018-05-23T07:11:08.083Z,21.65
2018-05-23T07:13:36.655Z,21.71
2018-05-23T07:16:05.226Z,21.77
2018-05-23T07:18:33.802Z,21.66
2018-05-23T07:21:02.393Z,21.58
2018-05-23T07:23:30.963Z,21.70
2018-05-23T07:26:00.558Z,21.92
2018-05-23T07:28:29.275Z,22.04
2018-05-23T07:30:57.864Z,22.13
2018-05-23T07:33:26.481Z,22.08
2018-05-23T07:35:55.106Z,22.25
2018-05-23T07:38:23.821Z,22.28
2018-05-23T07:40:52.656Z,22.29
2018-05-23T07:43:21.221Z,22.34
2018-05-23T07:45:49.861Z,22.41
2018-05-23T07:48:18.602Z,22.41
2018-05-23T07:50:47.203Z,22.33
2018-05-23T07:53:15.809Z,22.22
2018-05-23T07:55:44.415Z,22.17
2018-05-23T07:58:13.312Z,22.06
2018-05-23T08:00:41.923Z,22.06
2018-05-23T08:03:10.563Z,22.20
2018-05-23T08:05:39.135Z,22.35
2018-05-23T08:08:07.700Z,22.46
2018-05-23T08:10:36.268Z,22.64
2018-05-23T08:13:04.831Z,22.57
2018-05-23T08:15:33.439Z,22.63
2018-05-23T08:18:02.011Z,22.81
2018-05-23T08:20:30.731Z,22.77
2018-05-23T08:22:59.322Z,22.90
2018-05-23T08:25:28.000Z,22.85
2018-05-23T08:27:56.663Z,23.00
2018-05-23T08:30:26.397Z,23.05
2018-05-23T08:32:55.024Z,23.14
2018-05-23T08:35:23.612Z,23.22
2018-05-23T08:37:53.480Z,23.40
2018-05-23T08:40:22.166Z,23.46
2018-05-23T08:42:50.966Z,23.53
2018-05-23T08:45:19.635Z,23.81
2018-05-23T08:47:48.406Z,23.97
2018-05-23T08:50:16.633Z,24.12
2018-05-23T08:52:45.256Z,24.16
2018-05-23T08:55:14.918Z,24.26
2018-05-23T08:57:43.525Z,24.32
2018-05-23T09:00:12.132Z,24.42
2018-05-23T09:02:40.704Z,24.35
2018-05-23T09:05:09.277Z,24.33
2018-05-23T09:07:37.902Z,24.27
2018-05-23T09:10:06.523Z,24.44
2018-05-23T09:12:35.200Z,24.62
2018-05-23T09:15:03.850Z,24.78
2018-05-23T09:17:32.420Z,24.77
2018-05-23T09:20:00.979Z,24.74
2018-05-23T09:22:29.596Z,24.81
2018-05-23T09:24:58.170Z,24.98
2018-05-23T09:27:26.739Z,25.23
2018-05-23T09:29:55.324Z,25.18
2018-05-23T09:32:23.905Z,25.10
2018-05-23T09:34:52.480Z,25.35
2018-05-23T09:37:21.064Z,25.48
2018-05-23T09:39:49.888Z,25.59
2018-05-23T09:42:18.458Z,25.78
2018-05-23T09:44:47.120Z,25.58
2018-05-23T09:47:15.735Z,25.49
2018-05-23T09:49:44.294Z,25.64
2018-05-23T09:52:12.978Z,25.56
2018-05-23T09:54:41.624Z,25.57
2018-05-23T09:57:10.188Z,25.62
2018-05-23T09:59:38.761Z,25.34
2018-05-23T10:02:07.357Z,25.42
2018-05-23T10:04:35.983Z,25.56
2018-05-23T10:07:04.569Z,25.39
2018-05-23T10:09:33.139Z,25.06
2018-05-23T10:12:01.692Z,24.94
2018-05-23T10:14:30.251Z,24.98
2018-05-23T10:16:58.832Z,24.96
2018-05-23T10:19:27.402Z,25.03
2018-05-23T10:21:55.969Z,24.94
2018-05-23T10:24:24.547Z,24.84
2018-05-23T10:26:53.138Z,24.74
2018-05-23T10:29:21.348Z,24.58
2018-05-23T10:31:49.900Z,24.64
2018-05-23T10:34:18.472Z,24.80
2018-05-23T10:36:47.191Z,24.65
2018-05-23T10:39:15.953Z,24.61
2018-05-23T10:41:44.526Z,24.59
2018-05-23T10:44:13.136Z,24.38
2018-05-23T10:46:41.707Z,24.45
2018-05-23T10:49:10.276Z,24.44
2018-05-23T10:51:38.846Z,24.34
2018-05-23T10:54:07.428Z,24.44
2018-05-23T10:56:36.007Z,24.55
2018-05-23T10:59:04.597Z,24.57
2018-05-23T11:01:33.176Z,24.49
2018-05-23T11:04:01.750Z,24.48
2018-05-23T11:06:30.316Z,24.59
2018-05-23T11:08:58.956Z,24.74
2018-05-23T11:11:27.677Z,24.64
2018-05-23T11:13:56.235Z,24.84
2018-05-23T11:16:24.814Z,24.74
2018-05-23T11:18:53.385Z,24.70
2018-05-23T11:21:21.947Z,24.68
2018-05-23T11:23:50.505Z,24.29
2018-05-23T11:26:19.078Z,24.57
2018-05-23T11:28:47.638Z,24.80
2018-05-23T11:31:16.236Z,24.91
2018-05-23T11:33:45.098Z,24.88
2018-05-23T11:36:13.656Z,24.97
2018-05-23T11:38:42.207Z,25.07
2018-05-23T11:41:10.804Z,24.99
2018-05-23T11:43:39.370Z,24.87
2018-05-23T11:46:07.929Z,24.73
2018-05-23T11:48:36.491Z,24.73
2018-05-23T11:51:05.050Z,24.73
2018-05-23T11:53:33.660Z,24.79
2018-05-23T11:56:02.276Z,24.83
2018-05-23T11:58:30.864Z,24.80
2018-05-23T12:01:00.283Z,24.82
2018-05-23T12:03:28.845Z,24.80
2018-05-23T12:05:57.451Z,24.81
2018-05-23T12:08:26.060Z,24.75
2018-05-23T12:10:54.618Z,24.90
2018-05-23T12:13:23.190Z,25.06
2018-05-23T12:15:51.747Z,24.96
2018-05-23T12:18:20.319Z,24.93
2018-05-23T12:20:49.884Z,24.85
2018-05-23T12:23:18.447Z,24.98
2018-05-23T12:25:47.029Z,25.16
2018-05-23T12:28:15.578Z,25.20
2018-05-23T12:30:44.132Z,25.30
2018-05-23T12:33:12.754Z,25.27
2018-05-23T12:35:41.499Z,25.14
2018-05-23T12:38:10.059Z,25.06
2018-05-23T12:40:38.671Z,25.22
2018-05-23T12:43:07.282Z,25.25
2018-05-23T12:45:35.848Z,25.31
2018-05-23T12:48:04.434Z,25.25
2018-05-23T12:50:33.075Z,25.20
2018-05-23T12:53:01.635Z,24.83
2018-05-23T12:55:30.192Z,24.75
2018-05-23T12:57:58.764Z,24.87
2018-05-23T13:00:27.357Z,24.85
2018-05-23T13:02:57.271Z,24.74
2018-05-23T13:05:25.906Z,24.74
2018-05-23T13:07:54.481Z,24.65
2018-05-23T13:10:23.061Z,24.78
2018-05-23T13:12:51.628Z,24.75
2018-05-23T13:15:24.500Z,24.82
2018-05-23T13:17:54.362Z,24.82
2018-05-23T13:20:23.104Z,24.74
2018-05-23T13:22:55.724Z,24.74
2018-05-23T13:25:26.417Z,24.56
2018-05-23T13:27:57.652Z,24.46
2018-05-23T13:30:26.345Z,24.48
2018-05-23T13:32:55.015Z,24.31
2018-05-23T13:35:23.575Z,24.29
2018-05-23T13:37:52.156Z,24.11
2018-05-23T13:40:20.750Z,24.05
2018-05-23T13:42:49.307Z,24.09
2018-05-23T13:45:17.875Z,24.14
2018-05-23T13:47:46.444Z,24.14
2018-05-23T13:50:15.016Z,24.02
2018-05-23T13:52:43.571Z,23.98
2018-05-23T13:55:12.213Z,23.89
2018-05-23T13:57:40.933Z,23.70
2018-05-23T14:00:09.563Z,23.73
2018-05-23T14:02:38.147Z,23.80
2018-05-23T14:05:06.749Z,23.77
2018-05-23T14:07:35.092Z,23.79
2018-05-23T14:10:03.357Z,23.86
2018-05-23T14:12:31.978Z,23.87
2018-05-23T14:15:00.551Z,23.81
2018-05-23T14:17:29.115Z,23.67
2018-05-23T14:19:57.675Z,23.53
2018-05-23T14:22:26.275Z,23.46
2018-05-23T14:24:54.837Z,23.43
2018-05-23T14:27:23.423Z,23.46
2018-05-23T14:29:52.001Z,23.39
2018-05-23T14:32:20.574Z,23.42
2018-05-23T14:34:49.228Z,23.39
2018-05-23T14:37:17.791Z,23.34
2018-05-23T14:39:46.354Z,23.30
2018-05-23T14:42:14.935Z,23.28
2018-05-23T14:44:43.547Z,23.11
2018-05-23T14:47:12.111Z,23.01
2018-05-23T14:49:40.691Z,22.90
2018-05-23T14:52:09.303Z,22.87
2018-05-23T14:54:37.894Z,22.69
2018-05-23T14:57:06.526Z,22.55
2018-05-23T14:59:35.090Z,22.48
2018-05-23T15:02:03.298Z,22.40
2018-05-23T15:04:31.869Z,22.40
2018-05-23T15:07:00.443Z,22.44
2018-05-23T15:09:29.022Z,22.43
2018-05-23T15:11:57.571Z,22.37
2018-05-23T15:14:26.249Z,22.25
2018-05-23T15:16:54.943Z,22.22
2018-05-23T15:19:23.499Z,22.16
2018-05-23T15:21:52.053Z,22.13
2018-05-23T15:24:20.606Z,22.01
2018-05-23T15:26:49.179Z,21.95
2018-05-23T15:29:18.389Z,21.99
2018-05-23T15:31:47.016Z,22.03
2018-05-23T15:34:15.579Z,22.01
2018-05-23T15:36:44.167Z,21.99
2018-05-23T15:39:12.768Z,21.90
2018-05-23T15:41:41.347Z,21.99
2018-05-23T15:44:10.114Z,21.98
2018-05-23T15:46:38.692Z,21.98
2018-05-23T15:49:07.275Z,21.94
2018-05-23T15:51:35.748Z,21.89
2018-05-23T15:54:04.307Z,21.87
2018-05-23T15:56:32.955Z,21.82
2018-05-23T15:59:01.530Z,21.69
2018-05-23T16:01:30.195Z,21.62
2018-05-23T16:03:58.813Z,21.65
2018-05-23T16:06:27.373Z,21.65
2018-05-23T16:08:55.931Z,21.66
2018-05-23T16:11:24.537Z,21.64
2018-05-23T16:13:53.920Z,21.59
2018-05-23T16:16:22.567Z,21.68
2018-05-23T16:18:51.134Z,21.66
2018-05-23T16:21:19.695Z,21.69
2018-05-23T16:23:48.246Z,21.68
2018-05-23T16:26:16.479Z,21.62
2018-05-23T16:28:45.078Z,21.65
2018-05-23T16:31:13.999Z,21.63
2018-05-23T16:33:42.575Z,21.62
2018-05-23T16:36:11.151Z,21.62
2018-05-23T16:38:39.709Z,21.56
2018-05-23T16:41:08.314Z,21.56
2018-05-23T16:43:36.873Z,21.54
2018-05-23T16:46:05.108Z,21.44
2018-05-23T16:48:33.687Z,21.39
2018-05-23T16:51:02.834Z,21.41
2018-05-23T16:53:31.412Z,21.40
2018-05-23T16:55:59.964Z,21.38
2018-05-23T16:58:28.555Z,21.35
2018-05-23T17:00:57.112Z,21.35
2018-05-23T17:03:26.182Z,21.32
2018-05-23T17:05:54.735Z,21.26
2018-05-23T17:08:23.340Z,21.27
2018-05-23T17:10:51.934Z,21.26
2018-05-23T17:13:20.496Z,21.19
2018-05-23T17:15:49.076Z,21.11
2018-05-23T17:18:17.647Z,21.05
2018-05-23T17:20:46.223Z,20.96
2018-05-23T17:23:14.843Z,20.99
2018-05-23T17:25:43.421Z,20.91
2018-05-23T17:28:12.017Z,20.98
2018-05-23T17:30:40.584Z,20.94
2018-05-23T17:33:09.152Z,20.90
2018-05-23T17:35:37.711Z,20.78
2018-05-23T17:38:06.297Z,20.77
2018-05-23T17:40:34.947Z,20.71
2018-05-23T17:43:03.507Z,20.72
2018-05-23T17:45:32.119Z,20.73
2018-05-23T17:48:00.677Z,20.75
2018-05-23T17:50:29.287Z,20.74
2018-05-23T17:52:57.847Z,20.69
2018-05-23T17:55:26.441Z,20.60
2018-05-23T17:57:55.026Z,20.60
2018-05-23T18:00:23.602Z,20.58
2018-05-23T18:02:52.155Z,20.47
2018-05-23T18:05:20.722Z,20.43
2018-05-23T18:07:49.267Z,20.41
2018-05-23T18:10:17.834Z,20.39
2018-05-23T18:12:46.402Z,20.41
2018-05-23T18:15:14.970Z,20.42
2018-05-23T18:17:43.609Z,20.41
2018-05-23T18:20:12.299Z,20.43
2018-05-23T18:22:40.879Z,20.43
2018-05-23T18:25:09.432Z,20.37
2018-05-23T18:27:38.071Z,20.38
2018-05-23T18:30:06.681Z,20.31
2018-05-23T18:32:35.234Z,20.28
2018-05-23T18:35:03.828Z,20.24
2018-05-23T18:37:32.396Z,20.19
2018-05-23T18:40:00.989Z,20.18
2018-05-23T18:42:29.564Z,20.17
2018-05-23T18:44:58.120Z,20.18
2018-05-23T18:47:26.692Z,20.17
2018-05-23T18:49:55.243Z,20.10
2018-05-23T18:52:23.853Z,20.05
2018-05-23T18:54:53.295Z,20.06
2018-05-23T18:57:21.910Z,20.06
2018-05-23T18:59:52.832Z,20.03
2018-05-23T19:02:21.407Z,19.99
2018-05-23T19:04:49.990Z,19.92
2018-05-23T19:07:18.386Z,19.87
2018-05-23T19:09:47.087Z,19.78
2018-05-23T19:12:15.708Z,19.70
2018-05-23T19:14:44.488Z,19.65
2018-05-23T19:17:13.419Z,19.64
2018-05-23T19:19:42.047Z,19.67
2018-05-23T19:22:10.756Z,19.73
2018-05-23T19:24:39.497Z,19.79
2018-05-23T19:27:08.083Z,19.77
2018-05-23T19:29:37.532Z,19.74
2018-05-23T19:32:06.106Z,19.68
2018-05-23T19:34:34.895Z,19.64
2018-05-23T19:37:03.497Z,19.57
2018-05-23T19:39:32.081Z,19.59
2018-05-23T19:42:00.699Z,19.56
2018-05-23T19:44:29.271Z,19.43
2018-05-23T19:46:58.706Z,19.42
2018-05-23T19:49:26.974Z,19.36
2018-05-23T19:51:55.578Z,19.27
2018-05-23T19:54:24.198Z,19.22
2018-05-23T19:56:52.754Z,19.23
2018-05-23T19:59:22.124Z,19.24
2018-05-23T20:01:50.690Z,19.18
2018-05-23T20:04:19.272Z,19.17
2018-05-23T20:06:47.868Z,19.16
2018-05-23T20:09:16.431Z,19.14
2018-05-23T20:11:44.996Z,19.18
2018-05-23T20:14:13.663Z,19.16
2018-05-23T20:16:42.360Z,19.16
2018-05-23T20:19:10.923Z,19.10
2018-05-23T20:21:39.484Z,19.08
2018-05-23T20:24:08.044Z,19.10
2018-05-23T20:26:36.627Z,19.11
2018-05-23T20:29:05.187Z,19.11
2018-05-23T20:31:34.730Z,19.10
2018-05-23T20:34:03.322Z,19.12
2018-05-23T20:36:31.878Z,19.11
2018-05-23T20:39:00.444Z,19.07
2018-05-23T20:41:29.043Z,19.00
2018-05-23T20:43:57.615Z,18.99
2018-05-23T20:46:26.170Z,18.95
2018-05-23T20:48:54.732Z,18.97
2018-05-23T20:51:23.336Z,18.96
2018-05-23T20:53:51.890Z,18.95
2018-05-23T20:56:20.500Z,18.97
2018-05-23T20:58:49.136Z,18.92
2018-05-23T21:01:17.886Z,18.91
2018-05-23T21:03:46.489Z,18.89
2018-05-23T21:06:15.261Z,18.88
2018-05-23T21:08:43.822Z,18.84
2018-05-23T21:11:12.421Z,18.81
2018-05-23T21:13:41.020Z,18.83
2018-05-23T21:16:09.612Z,18.79
2018-05-23T21:18:38.180Z,18.77
2018-05-23T21:21:06.805Z,18.80
2018-05-23T21:23:35.377Z,18.80
2018-05-23T21:26:04.787Z,18.85
2018-05-23T21:28:33.343Z,18.84
2018-05-23T21:31:01.967Z,18.86
2018-05-23T21:33:30.536Z,18.92
2018-05-23T21:35:59.123Z,19.00
2018-05-23T21:38:27.687Z,19.13
2018-05-23T21:40:55.947Z,19.18
2018-05-23T21:43:24.516Z,19.20
2018-05-23T21:45:53.094Z,19.29
2018-05-23T21:48:21.684Z,19.38
2018-05-23T21:51:02.204Z,19.39
2018-05-23T21:53:30.782Z,19.38
2018-05-23T21:55:59.342Z,19.38
2018-05-23T21:58:27.919Z,19.41
2018-05-23T22:00:56.486Z,19.39
2018-05-23T22:03:25.042Z,19.31
2018-05-23T22:05:53.604Z,19.28
2018-05-23T22:08:22.183Z,19.15
2018-05-23T22:10:50.745Z,19.09
2018-05-23T22:13:19.303Z,19.00
2018-05-23T22:18:21.820Z,18.98
2018-05-23T22:20:50.517Z,19.03
2018-05-23T22:23:19.078Z,19.07
2018-05-23T22:25:47.666Z,19.04
2018-05-23T22:28:16.209Z,18.89
2018-05-23T22:30:44.826Z,18.88
2018-05-23T22:33:13.510Z,18.89
2018-05-23T22:35:42.062Z,18.83
2018-05-23T22:38:10.632Z,18.88
2018-05-23T22:40:39.181Z,18.94
2018-05-23T22:43:07.741Z,19.04
2018-05-23T22:45:36.305Z,19.10
2018-05-23T22:48:04.868Z,19.15
2018-05-23T22:50:33.427Z,19.20
2018-05-23T22:53:01.981Z,19.24
2018-05-23T22:55:30.568Z,19.23
2018-05-23T22:57:59.132Z,19.19
2018-05-23T23:00:27.003Z,19.21
2018-05-23T23:02:55.584Z,19.20
2018-05-23T23:05:24.152Z,19.22
2018-05-23T23:07:52.713Z,19.19
2018-05-23T23:10:21.297Z,19.25
2018-05-23T23:12:49.857Z,19.23
2018-05-23T23:15:18.423Z,19.23
2018-05-23T23:17:46.979Z,19.27
2018-05-23T23:20:15.530Z,19.24
2018-05-23T23:22:44.097Z,19.15
2018-05-23T23:25:12.668Z,19.09
2018-05-23T23:27:41.310Z,19.12
2018-05-23T23:30:10.107Z,19.06
2018-05-23T23:32:38.680Z,18.94
2018-05-23T23:35:07.253Z,18.93
2018-05-23T23:37:35.875Z,18.88
2018-05-23T23:40:04.108Z,18.89
2018-05-23T23:42:32.684Z,18.92
2018-05-23T23:45:01.256Z,18.93
2018-05-23T23:47:29.822Z,18.89
2018-05-23T23:49:58.158Z,18.92
2018-05-23T23:52:26.743Z,18.93
2018-05-23T23:54:55.302Z,18.92
2018-05-23T23:57:23.875Z,18.89
2018-05-23T23:59:52.431Z,18.87
